sensor_id;sensor_type;location;lat;lon;timestamp;pressure;altitude;pressure_sealevel;temperature;humidity
54172;BME280;40076;52.354;4.970;2022-08-19T00:01:08;101405.59;;;21.82;78.20
54172;BME280;40076;52.354;4.970;2022-08-19T00:03:33;101406.00;;;21.80;78.24
54172;BME280;40076;52.354;4.970;2022-08-19T00:05:58;101400.47;;;21.77;78.07
54172;BME280;40076;52.354;4.970;2022-08-19T00:08:24;101389.81;;;21.72;78.24
54172;BME280;40076;52.354;4.970;2022-08-19T00:10:49;101394.91;;;21.70;78.15
54172;BME280;40076;52.354;4.970;2022-08-19T00:13:14;101394.09;;;21.69;78.15
54172;BME280;40076;52.354;4.970;2022-08-19T00:15:40;101387.81;;;21.65;78.01
54172;BME280;40076;52.354;4.970;2022-08-19T00:18:06;101385.84;;;21.66;78.26
54172;BME280;40076;52.354;4.970;2022-08-19T00:20:31;101379.94;;;21.64;78.14
54172;BME280;40076;52.354;4.970;2022-08-19T00:22:56;101380.31;;;21.62;78.33
54172;BME280;40076;52.354;4.970;2022-08-19T00:25:22;101386.97;;;21.61;78.24
54172;BME280;40076;52.354;4.970;2022-08-19T00:27:47;101380.28;;;21.59;78.23
54172;BME280;40076;52.354;4.970;2022-08-19T00:30:13;101384.16;;;21.54;78.32
54172;BME280;40076;52.354;4.970;2022-08-19T00:32:39;101369.97;;;21.48;78.51
54172;BME280;40076;52.354;4.970;2022-08-19T00:35:04;101371.88;;;21.44;78.69
54172;BME280;40076;52.354;4.970;2022-08-19T00:37:30;101376.59;;;21.40;79.02
54172;BME280;40076;52.354;4.970;2022-08-19T00:39:55;101385.56;;;21.37;79.05
54172;BME280;40076;52.354;4.970;2022-08-19T00:42:20;101385.56;;;21.34;79.23
54172;BME280;40076;52.354;4.970;2022-08-19T00:44:46;101387.50;;;21.33;79.36
54172;BME280;40076;52.354;4.970;2022-08-19T00:47:11;101375.31;;;21.31;79.53
54172;BME280;40076;52.354;4.970;2022-08-19T00:49:38;101379.22;;;21.30;79.46
54172;BME280;40076;52.354;4.970;2022-08-19T00:52:15;101377.25;;;21.27;79.38
54172;BME280;40076;52.354;4.970;2022-08-19T00:54:42;101377.63;;;21.25;79.58
54172;BME280;40076;52.354;4.970;2022-08-19T00:57:12;101378.78;;;21.24;79.63
54172;BME280;40076;52.354;4.970;2022-08-19T00:59:40;101383.06;;;21.22;79.70
54172;BME280;40076;52.354;4.970;2022-08-19T01:02:06;101389.34;;;21.18;79.94
54172;BME280;40076;52.354;4.970;2022-08-19T01:04:31;101385.34;;;21.16;80.13
54172;BME280;40076;52.354;4.970;2022-08-19T01:06:56;101385.72;;;21.14;80.11
54172;BME280;40076;52.354;4.970;2022-08-19T01:09:22;101388.88;;;21.13;80.22
54172;BME280;40076;52.354;4.970;2022-08-19T01:11:47;101393.94;;;21.11;80.24
54172;BME280;40076;52.354;4.970;2022-08-19T01:14:13;101399.81;;;21.09;80.22
54172;BME280;40076;52.354;4.970;2022-08-19T01:16:40;101390.34;;;21.07;80.19
54172;BME280;40076;52.354;4.970;2022-08-19T01:19:27;101396.25;;;21.05;80.28
54172;BME280;40076;52.354;4.970;2022-08-19T01:22:08;101384.81;;;21.03;80.22
54172;BME280;40076;52.354;4.970;2022-08-19T01:24:36;101388.38;;;21.04;80.28
54172;BME280;40076;52.354;4.970;2022-08-19T01:27:03;101385.19;;;21.02;80.50
54172;BME280;40076;52.354;4.970;2022-08-19T01:29:29;101393.44;;;21.02;80.36
54172;BME280;40076;52.354;4.970;2022-08-19T01:31:54;101396.19;;;21.02;80.51
54172;BME280;40076;52.354;4.970;2022-08-19T01:34:19;101391.06;;;21.00;80.40
54172;BME280;40076;52.354;4.970;2022-08-19T01:36:45;101391.84;;;21.01;80.58
54172;BME280;40076;52.354;4.970;2022-08-19T01:39:13;101385.94;;;20.99;80.46
54172;BME280;40076;52.354;4.970;2022-08-19T01:41:40;101393.78;;;20.97;80.69
54172;BME280;40076;52.354;4.970;2022-08-19T01:44:06;101389.44;;;20.96;80.53
54172;BME280;40076;52.354;4.970;2022-08-19T01:46:31;101394.53;;;20.94;80.47
54172;BME280;40076;52.354;4.970;2022-08-19T01:48:57;101396.84;;;20.92;80.44
54172;BME280;40076;52.354;4.970;2022-08-19T01:51:26;101400.38;;;20.89;80.73
54172;BME280;40076;52.354;4.970;2022-08-19T01:53:51;101398.78;;;20.88;80.95
54172;BME280;40076;52.354;4.970;2022-08-19T01:56:17;101403.84;;;20.86;80.82
54172;BME280;40076;52.354;4.970;2022-08-19T01:58:44;101404.22;;;20.84;81.08
54172;BME280;40076;52.354;4.970;2022-08-19T02:01:13;101403.03;;;20.82;80.98
54172;BME280;40076;52.354;4.970;2022-08-19T02:03:38;101401.44;;;20.80;80.90
54172;BME280;40076;52.354;4.970;2022-08-19T02:06:04;101402.59;;;20.79;81.04
54172;BME280;40076;52.354;4.970;2022-08-19T02:08:30;101395.09;;;20.76;81.22
54172;BME280;40076;52.354;4.970;2022-08-19T02:10:56;101402.97;;;20.78;81.00
54172;BME280;40076;52.354;4.970;2022-08-19T02:13:21;101392.75;;;20.75;81.26
54172;BME280;40076;52.354;4.970;2022-08-19T02:15:47;101395.88;;;20.73;81.23
54172;BME280;40076;52.354;4.970;2022-08-19T02:18:12;101400.56;;;20.73;81.22
54172;BME280;40076;52.354;4.970;2022-08-19T02:20:38;101399.34;;;20.70;81.35
54172;BME280;40076;52.354;4.970;2022-08-19T02:23:04;101391.84;;;20.67;81.29
54172;BME280;40076;52.354;4.970;2022-08-19T02:25:29;101385.16;;;20.65;81.33
54172;BME280;40076;52.354;4.970;2022-08-19T02:27:55;101384.38;;;20.64;81.52
54172;BME280;40076;52.354;4.970;2022-08-19T02:30:20;101397.31;;;20.64;81.39
54172;BME280;40076;52.354;4.970;2022-08-19T02:32:45;101386.69;;;20.62;81.50
54172;BME280;40076;52.354;4.970;2022-08-19T02:35:12;101388.66;;;20.62;81.74
54172;BME280;40076;52.354;4.970;2022-08-19T02:37:37;101386.66;;;20.59;81.83
54172;BME280;40076;52.354;4.970;2022-08-19T02:40:21;101385.88;;;20.58;81.91
54172;BME280;40076;52.354;4.970;2022-08-19T02:42:46;101380.75;;;20.57;81.92
54172;BME280;40076;52.354;4.970;2022-08-19T02:45:12;101389.00;;;20.57;81.86
54172;BME280;40076;52.354;4.970;2022-08-19T02:47:38;101388.19;;;20.56;82.01
54172;BME280;40076;52.354;4.970;2022-08-19T02:50:04;101386.97;;;20.54;81.99
54172;BME280;40076;52.354;4.970;2022-08-19T02:52:31;101390.50;;;20.54;81.91
54172;BME280;40076;52.354;4.970;2022-08-19T02:54:56;101388.13;;;20.53;81.86
54172;BME280;40076;52.354;4.970;2022-08-19T02:57:22;101374.81;;;20.51;82.14
54172;BME280;40076;52.354;4.970;2022-08-19T02:59:47;101377.91;;;20.50;82.01
54172;BME280;40076;52.354;4.970;2022-08-19T03:02:13;101374.38;;;20.49;82.04
54172;BME280;40076;52.354;4.970;2022-08-19T03:04:38;101368.09;;;20.49;82.10
54172;BME280;40076;52.354;4.970;2022-08-19T03:07:03;101362.97;;;20.47;82.17
54172;BME280;40076;52.354;4.970;2022-08-19T03:09:28;101365.28;;;20.45;82.20
54172;BME280;40076;52.354;4.970;2022-08-19T03:11:55;101362.94;;;20.44;82.18
54172;BME280;40076;52.354;4.970;2022-08-19T03:14:20;101360.19;;;20.44;82.25
54172;BME280;40076;52.354;4.970;2022-08-19T03:16:46;101361.72;;;20.41;82.31
54172;BME280;40076;52.354;4.970;2022-08-19T03:19:12;101366.41;;;20.40;82.31
54172;BME280;40076;52.354;4.970;2022-08-19T03:21:37;101358.56;;;20.39;82.17
54172;BME280;40076;52.354;4.970;2022-08-19T03:24:04;101357.75;;;20.38;82.42
54172;BME280;40076;52.354;4.970;2022-08-19T03:26:30;101358.91;;;20.37;82.33
54172;BME280;40076;52.354;4.970;2022-08-19T03:28:55;101355.78;;;20.35;82.22
54172;BME280;40076;52.354;4.970;2022-08-19T03:31:21;101356.94;;;20.34;82.46
54172;BME280;40076;52.354;4.970;2022-08-19T03:33:47;101357.28;;;20.33;82.47
54172;BME280;40076;52.354;4.970;2022-08-19T03:36:14;101360.38;;;20.31;82.45
54172;BME280;40076;52.354;4.970;2022-08-19T03:38:41;101353.69;;;20.29;82.41
54172;BME280;40076;52.354;4.970;2022-08-19T03:41:11;101347.78;;;20.27;82.41
54172;BME280;40076;52.354;4.970;2022-08-19T03:43:37;101343.81;;;20.24;82.60
54172;BME280;40076;52.354;4.970;2022-08-19T03:46:07;101348.53;;;20.24;82.44
54172;BME280;40076;52.354;4.970;2022-08-19T03:48:33;101346.94;;;20.23;82.48
54172;BME280;40076;52.354;4.970;2022-08-19T03:50:59;101353.56;;;20.22;82.68
54172;BME280;40076;52.354;4.970;2022-08-19T03:53:25;101358.31;;;20.21;82.74
54172;BME280;40076;52.354;4.970;2022-08-19T03:55:51;101351.59;;;20.19;82.63
54172;BME280;40076;52.354;4.970;2022-08-19T03:58:17;101357.88;;;20.19;82.64
54172;BME280;40076;52.354;4.970;2022-08-19T04:00:43;101354.69;;;20.17;82.70
54172;BME280;40076;52.354;4.970;2022-08-19T04:03:08;101357.81;;;20.16;82.80
54172;BME280;40076;52.354;4.970;2022-08-19T04:05:33;101355.44;;;20.14;82.69
54172;BME280;40076;52.354;4.970;2022-08-19T04:07:59;101353.09;;;20.13;82.86
54172;BME280;40076;52.354;4.970;2022-08-19T04:10:25;101347.16;;;20.11;82.89
54172;BME280;40076;52.354;4.970;2022-08-19T04:12:50;101342.47;;;20.11;82.88
54172;BME280;40076;52.354;4.970;2022-08-19T04:15:15;101345.59;;;20.10;82.85
54172;BME280;40076;52.354;4.970;2022-08-19T04:17:41;101353.81;;;20.10;82.94
54172;BME280;40076;52.354;4.970;2022-08-19T04:20:06;101358.06;;;20.07;83.18
54172;BME280;40076;52.354;4.970;2022-08-19T04:22:31;101355.72;;;20.06;83.19
54172;BME280;40076;52.354;4.970;2022-08-19T04:24:57;101362.38;;;20.04;83.32
54172;BME280;40076;52.354;4.970;2022-08-19T04:27:22;101351.41;;;20.04;83.42
54172;BME280;40076;52.354;4.970;2022-08-19T04:29:48;101349.81;;;20.03;83.25
54172;BME280;40076;52.354;4.970;2022-08-19T04:32:13;101351.75;;;20.03;83.29
54172;BME280;40076;52.354;4.970;2022-08-19T04:34:40;101355.66;;;20.02;83.58
54172;BME280;40076;52.354;4.970;2022-08-19T04:37:05;101357.19;;;19.99;83.62
54172;BME280;40076;52.354;4.970;2022-08-19T04:39:36;101352.88;;;19.98;83.87
54172;BME280;40076;52.354;4.970;2022-08-19T04:42:21;101349.72;;;19.96;84.05
54172;BME280;40076;52.354;4.970;2022-08-19T04:45:05;101350.88;;;19.95;84.07
54172;BME280;40076;52.354;4.970;2022-08-19T04:47:31;101357.88;;;19.93;84.33
54172;BME280;40076;52.354;4.970;2022-08-19T04:49:57;101358.25;;;19.91;84.51
54172;BME280;40076;52.354;4.970;2022-08-19T04:52:22;101360.22;;;19.91;84.52
54172;BME280;40076;52.354;4.970;2022-08-19T04:54:48;101363.31;;;19.89;84.72
54172;BME280;40076;52.354;4.970;2022-08-19T04:57:13;101364.47;;;19.88;84.69
54172;BME280;40076;52.354;4.970;2022-08-19T04:59:38;101366.00;;;19.86;84.96
54172;BME280;40076;52.354;4.970;2022-08-19T05:02:04;101369.91;;;19.85;85.87
54172;BME280;40076;52.354;4.970;2022-08-19T05:04:29;101370.28;;;19.83;85.57
54172;BME280;40076;52.354;4.970;2022-08-19T05:06:58;101381.97;;;19.80;86.02
54172;BME280;40076;52.354;4.970;2022-08-19T05:09:24;101382.34;;;19.79;85.81
54172;BME280;40076;52.354;4.970;2022-08-19T05:11:49;101381.56;;;19.78;85.66
54172;BME280;40076;52.354;4.970;2022-08-19T05:14:17;101385.44;;;19.77;85.94
54172;BME280;40076;52.354;4.970;2022-08-19T05:16:44;101384.25;;;19.75;85.99
54172;BME280;40076;52.354;4.970;2022-08-19T05:19:09;101394.44;;;19.74;86.12
54172;BME280;40076;52.354;4.970;2022-08-19T05:21:53;101393.28;;;19.75;86.24
54172;BME280;40076;52.354;4.970;2022-08-19T05:24:37;101391.69;;;19.74;86.48
54172;BME280;40076;52.354;4.970;2022-08-19T05:27:02;101388.94;;;19.74;86.70
54172;BME280;40076;52.354;4.970;2022-08-19T05:29:29;101391.69;;;19.74;86.65
54172;BME280;40076;52.354;4.970;2022-08-19T05:31:56;101394.06;;;19.76;86.55
54172;BME280;40076;52.354;4.970;2022-08-19T05:34:21;101387.00;;;19.75;86.94
54172;BME280;40076;52.354;4.970;2022-08-19T05:36:48;101386.19;;;19.74;87.30
54172;BME280;40076;52.354;4.970;2022-08-19T05:39:15;101384.63;;;19.73;87.89
54172;BME280;40076;52.354;4.970;2022-08-19T05:41:42;101383.47;;;19.74;87.73
54172;BME280;40076;52.354;4.970;2022-08-19T05:44:07;101384.19;;;19.71;89.87
54172;BME280;40076;52.354;4.970;2022-08-19T05:46:34;101390.09;;;19.73;88.63
54172;BME280;40076;52.354;4.970;2022-08-19T05:48:59;101377.53;;;19.72;88.92
54172;BME280;40076;52.354;4.970;2022-08-19T05:51:25;101378.69;;;19.71;89.97
54172;BME280;40076;52.354;4.970;2022-08-19T05:53:50;101377.53;;;19.72;88.97
54172;BME280;40076;52.354;4.970;2022-08-19T05:56:16;101385.41;;;19.74;89.66
54172;BME280;40076;52.354;4.970;2022-08-19T05:58:42;101388.94;;;19.74;89.55
54172;BME280;40076;52.354;4.970;2022-08-19T06:01:13;101380.34;;;19.76;89.34
54172;BME280;40076;52.354;4.970;2022-08-19T06:03:39;101380.34;;;19.76;89.85
54172;BME280;40076;52.354;4.970;2022-08-19T06:06:04;101379.13;;;19.73;90.86
54172;BME280;40076;52.354;4.970;2022-08-19T06:08:30;101379.56;;;19.75;90.43
54172;BME280;40076;52.354;4.970;2022-08-19T06:10:56;101377.63;;;19.76;90.71
54172;BME280;40076;52.354;4.970;2022-08-19T06:13:21;101380.75;;;19.78;90.85
54172;BME280;40076;52.354;4.970;2022-08-19T06:15:47;101374.91;;;19.79;90.97
54172;BME280;40076;52.354;4.970;2022-08-19T06:18:13;101375.69;;;19.80;91.11
54172;BME280;40076;52.354;4.970;2022-08-19T06:20:39;101377.28;;;19.81;91.49
54172;BME280;40076;52.354;4.970;2022-08-19T06:23:04;101372.16;;;19.79;93.68
54172;BME280;40076;52.354;4.970;2022-08-19T06:25:29;101373.41;;;19.82;92.34
54172;BME280;40076;52.354;4.970;2022-08-19T06:27:55;101378.50;;;19.83;92.13
54172;BME280;40076;52.354;4.970;2022-08-19T06:30:20;101376.19;;;19.85;91.75
54172;BME280;40076;52.354;4.970;2022-08-19T06:32:45;101378.56;;;19.87;92.29
54172;BME280;40076;52.354;4.970;2022-08-19T06:35:10;101369.97;;;19.88;92.40
54172;BME280;40076;52.354;4.970;2022-08-19T06:37:36;101371.56;;;19.89;92.78
54172;BME280;40076;52.354;4.970;2022-08-19T06:40:01;101376.25;;;19.89;95.47
54172;BME280;40076;52.354;4.970;2022-08-19T06:42:27;101382.56;;;19.93;93.20
54172;BME280;40076;52.354;4.970;2022-08-19T06:44:52;101378.66;;;19.94;92.96
54172;BME280;40076;52.354;4.970;2022-08-19T06:47:18;101379.88;;;19.96;93.22
54172;BME280;40076;52.354;4.970;2022-08-19T06:49:44;101381.47;;;19.97;92.95
54172;BME280;40076;52.354;4.970;2022-08-19T06:52:10;101381.88;;;19.99;93.59
54172;BME280;40076;52.354;4.970;2022-08-19T06:54:37;101383.09;;;20.02;93.93
54172;BME280;40076;52.354;4.970;2022-08-19T06:57:02;101381.97;;;20.07;93.31
54172;BME280;40076;52.354;4.970;2022-08-19T06:59:31;101384.34;;;20.08;94.54
54172;BME280;40076;52.354;4.970;2022-08-19T07:01:58;101384.00;;;20.10;94.26
54172;BME280;40076;52.354;4.970;2022-08-19T07:04:25;101387.97;;;20.12;94.70
54172;BME280;40076;52.354;4.970;2022-08-19T07:06:56;101399.75;;;20.16;94.90
54172;BME280;40076;52.354;4.970;2022-08-19T07:09:22;101390.81;;;20.19;94.77
54172;BME280;40076;52.354;4.970;2022-08-19T07:11:49;101397.47;;;20.22;96.21
54172;BME280;40076;52.354;4.970;2022-08-19T07:14:15;101393.66;;;20.26;96.01
54172;BME280;40076;52.354;4.970;2022-08-19T07:16:42;101396.06;;;20.31;96.39
54172;BME280;40076;52.354;4.970;2022-08-19T07:19:08;101400.84;;;20.34;96.34
54172;BME280;40076;52.354;4.970;2022-08-19T07:21:33;101395.38;;;20.38;96.30
54172;BME280;40076;52.354;4.970;2022-08-19T07:24:00;101399.34;;;20.40;96.74
54172;BME280;40076;52.354;4.970;2022-08-19T07:26:27;101404.50;;;20.46;96.21
54172;BME280;40076;52.354;4.970;2022-08-19T07:28:53;101400.66;;;20.50;96.39
54172;BME280;40076;52.354;4.970;2022-08-19T07:31:20;101399.13;;;20.53;97.73
54172;BME280;40076;52.354;4.970;2022-08-19T07:33:46;101400.75;;;20.57;96.67
54172;BME280;40076;52.354;4.970;2022-08-19T07:36:12;101399.19;;;20.60;97.57
54172;BME280;40076;52.354;4.970;2022-08-19T07:38:39;101393.41;;;20.65;97.51
54172;BME280;40076;52.354;4.970;2022-08-19T07:41:05;101403.25;;;20.69;96.99
54172;BME280;40076;52.354;4.970;2022-08-19T07:43:30;101391.97;;;20.74;97.70
54172;BME280;40076;52.354;4.970;2022-08-19T07:45:56;101397.09;;;20.79;97.58
54172;BME280;40076;52.354;4.970;2022-08-19T07:48:26;101399.13;;;20.83;97.53
54172;BME280;40076;52.354;4.970;2022-08-19T07:50:52;101401.16;;;20.89;97.29
54172;BME280;40076;52.354;4.970;2022-08-19T07:53:17;101414.97;;;20.96;97.24
54172;BME280;40076;52.354;4.970;2022-08-19T07:55:43;101411.88;;;21.01;97.43
54172;BME280;40076;52.354;4.970;2022-08-19T07:58:10;101402.50;;;21.06;97.18
54172;BME280;40076;52.354;4.970;2022-08-19T08:00:36;101402.19;;;21.11;96.80
54172;BME280;40076;52.354;4.970;2022-08-19T08:03:02;101412.81;;;21.16;97.12
54172;BME280;40076;52.354;4.970;2022-08-19T08:05:27;101411.75;;;21.21;97.21
54172;BME280;40076;52.354;4.970;2022-08-19T08:08:11;101427.09;;;21.25;97.53
54172;BME280;40076;52.354;4.970;2022-08-19T08:10:55;101425.22;;;21.33;96.63
54172;BME280;40076;52.354;4.970;2022-08-19T08:13:21;101422.91;;;21.38;96.98
54172;BME280;40076;52.354;4.970;2022-08-19T08:15:46;101419.03;;;21.43;96.84
54172;BME280;40076;52.354;4.970;2022-08-19T08:18:11;101423.81;;;21.49;96.23
54172;BME280;40076;52.354;4.970;2022-08-19T08:20:36;101434.44;;;21.54;95.97
54172;BME280;40076;52.354;4.970;2022-08-19T08:23:02;101432.53;;;21.59;96.21
54172;BME280;40076;52.354;4.970;2022-08-19T08:25:45;101427.84;;;21.63;95.41
54172;BME280;40076;52.354;4.970;2022-08-19T08:28:12;101434.56;;;21.69;95.21
54172;BME280;40076;52.354;4.970;2022-08-19T08:30:37;101432.66;;;21.73;95.77
54172;BME280;40076;52.354;4.970;2022-08-19T08:33:06;101431.94;;;21.79;94.97
54172;BME280;40076;52.354;4.970;2022-08-19T08:35:31;101428.81;;;21.84;95.25
54172;BME280;40076;52.354;4.970;2022-08-19T08:37:56;101427.69;;;21.89;94.99
54172;BME280;40076;52.354;4.970;2022-08-19T08:40:34;101426.13;;;21.91;94.99
54172;BME280;40076;52.354;4.970;2022-08-19T08:43:19;101423.06;;;21.97;95.07
54172;BME280;40076;52.354;4.970;2022-08-19T08:45:53;101425.06;;;22.03;94.69
54172;BME280;40076;52.354;4.970;2022-08-19T08:48:21;101431.78;;;22.09;93.73
54172;BME280;40076;52.354;4.970;2022-08-19T08:50:49;101435.75;;;22.15;93.36
54172;BME280;40076;52.354;4.970;2022-08-19T08:53:17;101438.94;;;22.21;93.21
54172;BME280;40076;52.354;4.970;2022-08-19T08:55:44;101439.78;;;22.28;92.74
54172;BME280;40076;52.354;4.970;2022-08-19T08:58:12;101437.47;;;22.34;92.37
54172;BME280;40076;52.354;4.970;2022-08-19T09:00:44;101439.47;;;22.41;92.44
54172;BME280;40076;52.354;4.970;2022-08-19T09:03:16;101425.75;;;22.48;91.84
54172;BME280;40076;52.354;4.970;2022-08-19T09:08:18;101433.66;;;22.60;91.14
54172;BME280;40076;52.354;4.970;2022-08-19T09:10:49;101430.16;;;22.63;90.81
54172;BME280;40076;52.354;4.970;2022-08-19T09:13:20;101436.06;;;22.68;90.84
54172;BME280;40076;52.354;4.970;2022-08-19T09:15:56;101431.00;;;22.74;90.49
54172;BME280;40076;52.354;4.970;2022-08-19T09:18:23;101432.22;;;22.80;90.12
54172;BME280;40076;52.354;4.970;2022-08-19T09:20:48;101422.78;;;22.85;90.09
54172;BME280;40076;52.354;4.970;2022-08-19T09:23:14;101428.69;;;22.90;89.74
54172;BME280;40076;52.354;4.970;2022-08-19T09:25:39;101433.84;;;22.95;89.52
54172;BME280;40076;52.354;4.970;2022-08-19T09:28:05;101431.50;;;23.01;88.56
54172;BME280;40076;52.354;4.970;2022-08-19T09:30:32;101437.44;;;23.03;87.20
54172;BME280;40076;52.354;4.970;2022-08-19T09:32:57;101440.97;;;23.07;87.81
54172;BME280;40076;52.354;4.970;2022-08-19T09:35:24;101451.22;;;23.10;87.94
54172;BME280;40076;52.354;4.970;2022-08-19T09:37:50;101446.09;;;23.12;86.90
54172;BME280;40076;52.354;4.970;2022-08-19T09:40:16;101449.63;;;23.13;87.02
54172;BME280;40076;52.354;4.970;2022-08-19T09:42:42;101444.16;;;23.16;86.68
54172;BME280;40076;52.354;4.970;2022-08-19T09:45:08;101448.50;;;23.21;85.17
54172;BME280;40076;52.354;4.970;2022-08-19T09:47:34;101438.28;;;23.25;86.11
54172;BME280;40076;52.354;4.970;2022-08-19T09:50:02;101443.78;;;23.28;84.90
54172;BME280;40076;52.354;4.970;2022-08-19T09:52:28;101441.84;;;23.32;85.34
54172;BME280;40076;52.354;4.970;2022-08-19T09:54:53;101439.84;;;23.36;84.57
54172;BME280;40076;52.354;4.970;2022-08-19T09:57:18;101449.72;;;23.41;84.30
54172;BME280;40076;52.354;4.970;2022-08-19T09:59:44;101453.28;;;23.45;83.95
54172;BME280;40076;52.354;4.970;2022-08-19T10:02:09;101456.88;;;23.53;83.33
54172;BME280;40076;52.354;4.970;2022-08-19T10:04:35;101456.47;;;23.58;83.40
54172;BME280;40076;52.354;4.970;2022-08-19T10:07:19;101447.41;;;23.61;82.72
54172;BME280;40076;52.354;4.970;2022-08-19T10:09:44;101449.38;;;23.60;80.95
54172;BME280;40076;52.354;4.970;2022-08-19T10:12:10;101447.81;;;23.63;82.33
54172;BME280;40076;52.354;4.970;2022-08-19T10:14:35;101450.97;;;23.61;81.59
54172;BME280;40076;52.354;4.970;2022-08-19T10:17:01;101444.28;;;23.62;81.51
54172;BME280;40076;52.354;4.970;2022-08-19T10:19:27;101440.34;;;23.63;81.25
54172;BME280;40076;52.354;4.970;2022-08-19T10:21:57;101446.22;;;23.65;81.74
54172;BME280;40076;52.354;4.970;2022-08-19T10:24:22;101433.63;;;23.68;81.71
54172;BME280;40076;52.354;4.970;2022-08-19T10:26:49;101436.00;;;23.69;81.54
54172;BME280;40076;52.354;4.970;2022-08-19T10:29:14;101432.06;;;23.70;81.63
54172;BME280;40076;52.354;4.970;2022-08-19T10:31:41;101440.31;;;23.74;81.50
54172;BME280;40076;52.354;4.970;2022-08-19T10:34:06;101447.03;;;23.76;81.06
54172;BME280;40076;52.354;4.970;2022-08-19T10:36:33;101440.75;;;23.79;80.89
54172;BME280;40076;52.354;4.970;2022-08-19T10:39:00;101441.09;;;23.81;80.85
54172;BME280;40076;52.354;4.970;2022-08-19T10:41:28;101443.09;;;23.84;80.52
54172;BME280;40076;52.354;4.970;2022-08-19T10:43:54;101441.09;;;23.89;79.24
54172;BME280;40076;52.354;4.970;2022-08-19T10:46:20;101443.88;;;23.96;78.73
54172;BME280;40076;52.354;4.970;2022-08-19T10:48:46;101447.44;;;24.00;78.92
54172;BME280;40076;52.354;4.970;2022-08-19T10:51:12;101446.66;;;24.03;78.40
54172;BME280;40076;52.354;4.970;2022-08-19T10:53:56;101446.63;;;24.06;78.33
54172;BME280;40076;52.354;4.970;2022-08-19T10:56:22;101445.84;;;24.09;78.56
54172;BME280;40076;52.354;4.970;2022-08-19T10:59:05;101444.66;;;24.10;78.07
54172;BME280;40076;52.354;4.970;2022-08-19T11:01:32;101431.63;;;24.11;77.18
54172;BME280;40076;52.354;4.970;2022-08-19T11:03:59;101438.34;;;24.13;77.42
54172;BME280;40076;52.354;4.970;2022-08-19T11:06:24;101439.91;;;24.14;77.85
54172;BME280;40076;52.354;4.970;2022-08-19T11:08:53;101442.69;;;24.18;78.38
54172;BME280;40076;52.354;4.970;2022-08-19T11:11:21;101433.63;;;24.21;78.20
54172;BME280;40076;52.354;4.970;2022-08-19T11:13:46;101445.84;;;24.23;78.05
54172;BME280;40076;52.354;4.970;2022-08-19T11:16:13;101449.78;;;24.26;78.19
54172;BME280;40076;52.354;4.970;2022-08-19T11:18:41;101442.69;;;24.29;77.83
54172;BME280;40076;52.354;4.970;2022-08-19T11:21:30;101441.09;;;24.31;77.61
54172;BME280;40076;52.354;4.970;2022-08-19T11:23:57;101445.44;;;24.36;77.69
54172;BME280;40076;52.354;4.970;2022-08-19T11:26:23;101438.31;;;24.38;77.12
54172;BME280;40076;52.354;4.970;2022-08-19T11:28:49;101448.19;;;24.39;76.17
54172;BME280;40076;52.354;4.970;2022-08-19T11:31:20;101444.63;;;24.42;76.38
54172;BME280;40076;52.354;4.970;2022-08-19T11:33:45;101438.31;;;24.45;75.08
54172;BME280;40076;52.354;4.970;2022-08-19T11:36:11;101446.56;;;24.49;75.08
54172;BME280;40076;52.354;4.970;2022-08-19T11:38:37;101441.03;;;24.52;75.62
54172;BME280;40076;52.354;4.970;2022-08-19T11:41:04;101435.91;;;24.54;73.72
54172;BME280;40076;52.354;4.970;2022-08-19T11:43:29;101430.00;;;24.56;72.77
54172;BME280;40076;52.354;4.970;2022-08-19T11:45:57;101439.03;;;24.56;74.56
54172;BME280;40076;52.354;4.970;2022-08-19T11:48:24;101435.09;;;24.61;74.53
54172;BME280;40076;52.354;4.970;2022-08-19T11:50:49;101446.94;;;24.61;74.25
54172;BME280;40076;52.354;4.970;2022-08-19T11:53:18;101432.31;;;24.65;74.04
54172;BME280;40076;52.354;4.970;2022-08-19T11:55:45;101435.06;;;24.65;73.36
54172;BME280;40076;52.354;4.970;2022-08-19T11:58:11;101437.84;;;24.65;72.96
54172;BME280;40076;52.354;4.970;2022-08-19T12:00:37;101439.81;;;24.68;72.48
54172;BME280;40076;52.354;4.970;2022-08-19T12:03:02;101439.03;;;24.71;72.77
54172;BME280;40076;52.354;4.970;2022-08-19T12:05:28;101443.72;;;24.74;72.94
54172;BME280;40076;52.354;4.970;2022-08-19T12:07:53;101448.06;;;24.75;72.09
54172;BME280;40076;52.354;4.970;2022-08-19T12:10:19;101438.19;;;24.77;71.58
54172;BME280;40076;52.354;4.970;2022-08-19T12:12:44;101446.88;;;24.79;72.01
54172;BME280;40076;52.354;4.970;2022-08-19T12:15:10;101455.53;;;24.85;72.46
54172;BME280;40076;52.354;4.970;2022-08-19T12:17:36;101446.06;;;24.86;71.74
54172;BME280;40076;52.354;4.970;2022-08-19T12:20:02;101438.16;;;24.91;72.21
54172;BME280;40076;52.354;4.970;2022-08-19T12:22:27;101438.56;;;24.93;72.21
54172;BME280;40076;52.354;4.970;2022-08-19T12:24:53;101439.72;;;24.96;71.73
54172;BME280;40076;52.354;4.970;2022-08-19T12:27:18;101439.31;;;24.97;70.84
54172;BME280;40076;52.354;4.970;2022-08-19T12:29:43;101437.34;;;25.02;71.03
54172;BME280;40076;52.354;4.970;2022-08-19T12:32:09;101438.88;;;25.03;71.04
54172;BME280;40076;52.354;4.970;2022-08-19T12:34:35;101442.84;;;25.05;71.32
54172;BME280;40076;52.354;4.970;2022-08-19T12:37:02;101441.25;;;25.04;70.05
54172;BME280;40076;52.354;4.970;2022-08-19T12:39:28;101438.09;;;25.09;71.50
54172;BME280;40076;52.354;4.970;2022-08-19T12:41:53;101436.50;;;25.08;71.16
54172;BME280;40076;52.354;4.970;2022-08-19T12:44:19;101436.50;;;25.08;70.59
54172;BME280;40076;52.354;4.970;2022-08-19T12:46:44;101442.00;;;25.12;70.64
54172;BME280;40076;52.354;4.970;2022-08-19T12:49:09;101431.34;;;25.14;70.18
54172;BME280;40076;52.354;4.970;2022-08-19T12:51:35;101435.28;;;25.16;70.40